createdAt,value
2024-05-09T00:00:47.312Z,3.20
2024-05-09T00:03:35.211Z,3.30
2024-05-09T00:06:03.283Z,3.50
2024-05-09T00:08:31.442Z,3.10
2024-05-09T00:10:59.374Z,3.10
2024-05-09T00:13:27.380Z,3.20
2024-05-09T00:15:55.165Z,2.50
2024-05-09T00:18:22.984Z,3.40
2024-05-09T00:20:50.863Z,3.60
2024-05-09T00:23:18.916Z,2.60
2024-05-09T00:25:46.720Z,3.40
2024-05-09T00:28:14.510Z,3.30
2024-05-09T00:30:42.432Z,2.80
2024-05-09T00:33:11.202Z,3.00
2024-05-09T00:35:39.992Z,3.10
2024-05-09T00:38:08.153Z,3.00
2024-05-09T00:40:41.830Z,2.80
2024-05-09T00:43:12.563Z,3.00
2024-05-09T00:45:42.481Z,3.00
2024-05-09T00:48:14.226Z,2.90
2024-05-09T00:50:45.130Z,3.20
2024-05-09T00:53:14.608Z,3.30
2024-05-09T00:55:43.226Z,3.10
2024-05-09T00:58:12.467Z,2.80
2024-05-09T01:00:41.479Z,2.90
2024-05-09T01:03:11.997Z,3.90
2024-05-09T01:05:42.830Z,3.50
2024-05-09T01:08:11.685Z,3.50
2024-05-09T01:10:42.804Z,3.30
2024-05-09T01:13:12.968Z,2.90
2024-05-09T01:15:41.180Z,3.00
2024-05-09T01:18:11.697Z,3.80
2024-05-09T01:20:44.213Z,3.20
2024-05-09T01:23:15.257Z,4.20
2024-05-09T01:25:46.136Z,4.30
2024-05-09T01:28:15.022Z,4.30
2024-05-09T01:30:42.794Z,3.90
2024-05-09T01:33:12.100Z,4.30
2024-05-09T01:35:42.104Z,3.80
2024-05-09T01:38:16.839Z,3.80
2024-05-09T01:40:45.241Z,3.90
2024-05-09T01:43:12.962Z,3.70
2024-05-09T01:45:41.193Z,3.30
2024-05-09T01:48:09.779Z,3.40
2024-05-09T01:50:41.384Z,3.60
2024-05-09T01:55:40.174Z,3.60
2024-05-09T01:58:08.664Z,3.30
2024-05-09T02:00:40.524Z,3.50
2024-05-09T02:03:15.002Z,3.20
2024-05-09T02:05:47.051Z,3.10
2024-05-09T02:08:17.327Z,3.10
2024-05-09T02:10:47.281Z,3.30
2024-05-09T02:13:16.272Z,3.30
2024-05-09T02:15:44.489Z,3.10
2024-05-09T02:18:13.125Z,3.30
2024-05-09T02:20:42.191Z,3.50
2024-05-09T02:23:10.822Z,3.10
2024-05-09T02:25:38.497Z,2.90
2024-05-09T02:28:06.362Z,3.70
2024-05-09T02:30:39.698Z,2.90
2024-05-09T02:33:11.925Z,3.10
2024-05-09T02:35:42.376Z,3.10
2024-05-09T02:38:10.917Z,3.00
2024-05-09T02:40:40.037Z,3.50
2024-05-09T02:43:10.401Z,3.10
2024-05-09T02:45:40.036Z,3.50
2024-05-09T02:48:13.169Z,3.10
2024-05-09T02:50:43.916Z,3.20
2024-05-09T02:53:12.139Z,2.70
2024-05-09T02:55:41.437Z,3.20
2024-05-09T02:58:10.351Z,3.00
2024-05-09T03:00:41.485Z,3.40
2024-05-09T03:03:13.220Z,2.90
2024-05-09T03:05:44.759Z,2.90
2024-05-09T03:08:13.176Z,3.80
2024-05-09T03:10:41.237Z,3.50
2024-05-09T03:13:14.842Z,3.10
2024-05-09T03:15:44.515Z,3.40
2024-05-09T03:18:13.082Z,3.30
2024-05-09T03:20:43.550Z,3.20
2024-05-09T03:23:11.824Z,3.00
2024-05-09T03:25:39.787Z,2.70
2024-05-09T03:28:07.529Z,4.00
2024-05-09T03:30:40.720Z,3.30
2024-05-09T03:33:12.074Z,3.20
2024-05-09T03:35:41.111Z,3.20
2024-05-09T03:38:09.279Z,3.30
2024-05-09T03:40:43.655Z,3.70
2024-05-09T03:43:12.838Z,3.40
2024-05-09T03:45:40.513Z,3.30
2024-05-09T03:48:08.846Z,3.40
2024-05-09T03:50:37.447Z,3.60
2024-05-09T03:53:05.789Z,3.90
2024-05-09T03:55:33.457Z,3.40
2024-05-09T03:58:01.135Z,3.20
2024-05-09T04:00:35.818Z,3.20
2024-05-09T04:03:09.026Z,3.20
2024-05-09T04:05:40.951Z,3.60
2024-05-09T04:08:12.404Z,3.40
2024-05-09T04:10:40.913Z,3.30
2024-05-09T04:13:10.020Z,3.70
2024-05-09T04:15:37.894Z,3.40
2024-05-09T04:18:08.698Z,3.50
2024-05-09T04:20:39.733Z,3.40
2024-05-09T04:23:13.549Z,3.60
2024-05-09T04:25:43.337Z,3.30
2024-05-09T04:28:14.078Z,3.50
2024-05-09T04:30:42.661Z,4.00
2024-05-09T04:33:13.296Z,3.50
2024-05-09T04:35:43.406Z,3.10
2024-05-09T04:38:12.778Z,3.10
2024-05-09T04:40:40.982Z,3.40
2024-05-09T04:43:14.974Z,4.30
2024-05-09T04:45:42.703Z,4.70
2024-05-09T04:48:13.568Z,3.40
2024-05-09T04:50:49.962Z,3.40
2024-05-09T04:53:28.010Z,4.10
2024-05-09T05:03:04.616Z,3.90
2024-05-09T05:09:00.797Z,3.50
2024-05-09T05:11:34.990Z,3.90
2024-05-09T05:14:02.827Z,3.80
2024-05-09T05:16:30.585Z,3.80
2024-05-09T05:18:58.323Z,3.50
2024-05-09T05:21:26.434Z,3.80
2024-05-09T05:23:54.256Z,3.40
2024-05-09T05:26:22.058Z,3.40
2024-05-09T05:28:50.854Z,4.10
2024-05-09T05:31:18.499Z,2.80
2024-05-09T05:33:48.493Z,3.50
2024-05-09T05:36:16.554Z,3.20
2024-05-09T05:38:45.145Z,3.70
2024-05-09T05:41:13.019Z,4.00
2024-05-09T05:43:40.730Z,3.10
2024-05-09T05:46:08.409Z,3.30
2024-05-09T05:48:36.246Z,3.50
2024-05-09T05:51:05.594Z,3.60
2024-05-09T05:53:33.758Z,3.70
2024-05-09T05:56:01.622Z,3.50
2024-05-09T05:58:29.422Z,3.20
2024-05-09T06:00:57.326Z,3.90
2024-05-09T06:03:25.048Z,3.40
2024-05-09T06:05:52.958Z,3.60
2024-05-09T06:08:20.898Z,3.90
2024-05-09T06:10:48.818Z,3.40
2024-05-09T06:13:16.684Z,3.50
2024-05-09T06:15:44.436Z,3.60
2024-05-09T06:18:14.763Z,4.00
2024-05-09T06:20:43.979Z,3.60
2024-05-09T06:23:13.125Z,3.70
2024-05-09T06:25:42.069Z,3.50
2024-05-09T06:28:10.360Z,3.20
2024-05-09T06:30:41.887Z,3.30
2024-05-09T06:33:13.416Z,3.70
2024-05-09T06:35:44.175Z,3.00
2024-05-09T06:38:12.538Z,3.70
2024-05-09T06:40:42.437Z,3.20
2024-05-09T06:43:13.936Z,3.60
2024-05-09T06:45:42.199Z,3.30
2024-05-09T06:48:10.475Z,3.70
2024-05-09T06:50:39.841Z,3.40
2024-05-09T06:53:08.560Z,3.30
2024-05-09T06:55:39.358Z,3.40
2024-05-09T06:58:07.552Z,2.80
2024-05-09T07:00:39.531Z,3.50
2024-05-09T07:03:11.175Z,2.80
2024-05-09T07:05:40.308Z,3.30
2024-05-09T07:08:08.334Z,2.70
2024-05-09T07:10:41.450Z,3.50
2024-05-09T07:13:09.888Z,3.10
2024-05-09T07:15:38.235Z,3.10
2024-05-09T07:18:15.378Z,2.90
2024-05-09T07:20:43.552Z,3.40
2024-05-09T07:23:12.137Z,3.20
2024-05-09T07:25:41.087Z,3.20
2024-05-09T07:28:17.190Z,3.40
2024-05-09T07:30:45.331Z,2.90
2024-05-09T07:33:22.495Z,2.50
2024-05-09T07:38:19.831Z,2.80
2024-05-09T07:40:47.724Z,2.80
2024-05-09T07:43:16.346Z,2.30
2024-05-09T07:45:51.962Z,2.30
2024-05-09T07:52:38.345Z,2.60
2024-05-09T07:53:47.216Z,2.60
2024-05-09T07:56:20.111Z,2.60
2024-05-09T07:58:51.865Z,3.00
2024-05-09T08:01:20.539Z,3.00
2024-05-09T08:03:48.898Z,3.00
2024-05-09T08:06:16.799Z,2.70
2024-05-09T08:08:48.787Z,2.90
2024-05-09T08:11:16.669Z,2.90
2024-05-09T08:13:44.348Z,3.00
2024-05-09T08:16:14.103Z,2.30
2024-05-09T08:18:42.170Z,3.00
2024-05-09T08:21:10.050Z,2.70
2024-05-09T08:23:37.747Z,2.20
2024-05-09T08:26:05.588Z,2.20
2024-05-09T08:28:33.372Z,2.00
2024-05-09T08:31:04.215Z,2.20
2024-05-09T08:33:34.047Z,3.00
2024-05-09T08:36:01.923Z,2.00
2024-05-09T08:38:29.623Z,2.90
2024-05-09T08:40:57.254Z,2.40
2024-05-09T08:43:26.593Z,2.70
2024-05-09T08:45:54.402Z,2.50
2024-05-09T08:48:24.028Z,2.10
2024-05-09T08:50:53.011Z,2.50
2024-05-09T08:53:21.173Z,2.30
2024-05-09T08:55:49.474Z,2.00
2024-05-09T08:58:19.049Z,2.10
2024-05-09T09:00:47.949Z,2.40
2024-05-09T09:03:18.515Z,2.30
2024-05-09T09:05:58.592Z,2.30
2024-05-09T09:08:26.549Z,2.60
2024-05-09T09:11:03.147Z,2.10
2024-05-09T09:13:31.134Z,2.80
2024-05-09T09:15:59.815Z,2.10
2024-05-09T09:18:30.031Z,2.50
2024-05-09T09:20:58.236Z,2.60
2024-05-09T09:23:29.813Z,2.60
2024-05-09T09:25:59.570Z,2.90
2024-05-09T09:28:27.378Z,2.50
2024-05-09T09:31:01.745Z,2.60
2024-05-09T09:33:32.977Z,2.20
2024-05-09T09:36:04.979Z,2.60
2024-05-09T09:38:36.613Z,2.60
2024-05-09T09:41:07.317Z,2.50
2024-05-09T09:43:35.921Z,2.70
2024-05-09T09:46:04.052Z,2.40
2024-05-09T09:48:32.624Z,2.50
2024-05-09T09:51:00.863Z,2.30
2024-05-09T09:53:29.198Z,2.30
2024-05-09T09:55:58.909Z,2.60
2024-05-09T09:58:27.313Z,2.30
2024-05-09T10:00:55.532Z,2.50
2024-05-09T10:03:23.426Z,2.40
2024-05-09T10:05:51.591Z,2.60
2024-05-09T10:08:19.406Z,2.40
2024-05-09T10:10:47.568Z,3.20
2024-05-09T10:13:16.316Z,2.50
2024-05-09T10:15:54.420Z,2.80
2024-05-09T10:18:29.547Z,2.70
2024-05-09T10:20:59.937Z,2.40
2024-05-09T10:23:31.979Z,2.50
2024-05-09T10:26:01.560Z,2.70
2024-05-09T10:28:35.033Z,2.60
2024-05-09T10:31:10.875Z,2.70
2024-05-09T10:33:47.956Z,2.50
2024-05-09T10:36:24.182Z,2.40
2024-05-09T10:38:53.811Z,2.40
2024-05-09T10:41:22.652Z,2.10
2024-05-09T10:43:50.789Z,2.30
2024-05-09T10:46:18.901Z,2.50
2024-05-09T10:48:47.374Z,2.70
2024-05-09T10:51:17.178Z,2.30
2024-05-09T10:53:46.530Z,2.40
2024-05-09T10:56:14.853Z,2.40
2024-05-09T10:58:42.676Z,2.80
2024-05-09T11:01:11.136Z,2.30
2024-05-09T11:03:39.753Z,2.80
2024-05-09T11:06:09.564Z,2.50
2024-05-09T11:08:37.845Z,2.70
2024-05-09T11:11:07.739Z,2.60
2024-05-09T11:13:40.124Z,2.30
2024-05-09T11:16:20.755Z,2.20
2024-05-09T11:18:56.809Z,2.10
2024-05-09T11:21:24.999Z,2.80
2024-05-09T11:23:52.859Z,2.30
2024-05-09T11:26:21.887Z,2.70
2024-05-09T11:28:50.543Z,3.10
2024-05-09T11:31:18.773Z,3.30
2024-05-09T11:33:47.117Z,2.40
2024-05-09T11:36:15.363Z,2.60
2024-05-09T11:38:43.283Z,2.80
2024-05-09T11:41:18.079Z,2.30
2024-05-09T11:43:45.752Z,2.10
2024-05-09T11:46:13.807Z,2.90
2024-05-09T11:48:42.008Z,2.40
2024-05-09T11:51:09.840Z,2.50
2024-05-09T11:53:37.703Z,2.80
2024-05-09T11:56:05.807Z,2.50
2024-05-09T11:58:34.766Z,2.50
2024-05-09T12:01:03.049Z,2.50
2024-05-09T12:03:31.273Z,2.00
2024-05-09T12:05:59.402Z,2.70
2024-05-09T12:08:27.269Z,2.50
2024-05-09T12:10:55.100Z,2.60
2024-05-09T12:13:23.222Z,2.70
2024-05-09T12:15:51.058Z,1.90
2024-05-09T12:18:18.898Z,2.60
2024-05-09T12:20:46.658Z,2.30
2024-05-09T12:23:14.401Z,2.10
2024-05-09T12:25:42.211Z,2.80
2024-05-09T12:28:10.011Z,2.60
2024-05-09T12:30:40.074Z,1.90
2024-05-09T12:33:13.393Z,2.40
2024-05-09T12:35:44.405Z,1.90
2024-05-09T12:38:15.300Z,2.60
2024-05-09T12:40:43.772Z,2.70
2024-05-09T12:43:12.076Z,2.20
2024-05-09T12:45:40.357Z,2.10
2024-05-09T12:48:12.057Z,2.20
2024-05-09T12:53:08.775Z,2.50
2024-05-09T12:55:44.169Z,2.00
2024-05-09T12:58:22.106Z,2.00
2024-05-09T13:00:51.846Z,2.00
2024-05-09T13:03:19.779Z,2.30
2024-05-09T13:05:49.179Z,2.60
2024-05-09T13:08:17.167Z,2.20
2024-05-09T13:10:44.984Z,2.80
2024-05-09T13:13:12.869Z,2.80
2024-05-09T13:15:40.818Z,2.50
2024-05-09T13:18:09.069Z,2.20
2024-05-09T13:20:37.257Z,2.20
2024-05-09T13:23:07.348Z,2.30
2024-05-09T13:25:37.775Z,2.50
2024-05-09T13:28:07.584Z,2.80
2024-05-09T13:30:40.428Z,2.00
2024-05-09T13:33:12.009Z,2.60
2024-05-09T13:35:47.694Z,2.90
2024-05-09T13:38:19.304Z,2.00
2024-05-09T13:40:48.007Z,2.40
2024-05-09T13:43:16.177Z,2.10
2024-05-09T13:45:44.131Z,2.00
2024-05-09T13:48:12.073Z,2.30
2024-05-09T13:50:40.007Z,2.10
2024-05-09T13:53:08.719Z,2.60
2024-05-09T13:55:38.258Z,1.90
2024-05-09T13:58:06.837Z,2.40
2024-05-09T14:03:05.672Z,2.20
2024-05-09T14:05:33.625Z,1.90
2024-05-09T14:08:01.876Z,2.30
2024-05-09T14:10:31.755Z,2.40
2024-05-09T14:13:00.926Z,2.10
2024-05-09T14:15:28.948Z,2.20
2024-05-09T14:17:56.696Z,2.30
2024-05-09T14:20:30.901Z,2.80
2024-05-09T14:23:00.711Z,2.20
2024-05-09T14:25:29.933Z,2.20
2024-05-09T14:27:58.421Z,2.30
2024-05-09T14:30:34.529Z,2.40
2024-05-09T14:33:06.691Z,1.90
2024-05-09T14:35:35.591Z,2.90
2024-05-09T14:38:04.183Z,3.20
2024-05-09T14:40:40.400Z,2.30
2024-05-09T14:43:12.186Z,2.60
2024-05-09T14:45:40.606Z,3.90
2024-05-09T14:48:08.832Z,3.10
2024-05-09T14:50:39.300Z,3.10
2024-05-09T14:53:09.714Z,2.70
2024-05-09T14:55:42.913Z,3.70
2024-05-09T14:58:12.828Z,2.50
2024-05-09T15:00:46.363Z,2.80
2024-05-09T15:03:21.815Z,2.40
2024-05-09T15:05:51.383Z,3.00
2024-05-09T15:08:19.920Z,2.30
2024-05-09T15:10:49.631Z,2.30
2024-05-09T15:13:19.485Z,2.60
2024-05-09T15:15:48.067Z,1.80
2024-05-09T15:18:16.296Z,2.10
2024-05-09T15:20:44.776Z,2.40
2024-05-09T15:23:13.252Z,2.30
2024-05-09T15:25:40.963Z,1.40
2024-05-09T15:28:08.804Z,2.20
2024-05-09T15:30:37.334Z,2.00
2024-05-09T15:33:06.846Z,2.00
2024-05-09T15:35:36.056Z,2.10
2024-05-09T15:38:04.580Z,2.00
2024-05-09T15:40:39.104Z,2.20
2024-05-09T15:43:10.866Z,2.50
2024-05-09T15:45:40.919Z,1.70
2024-05-09T15:48:10.314Z,2.20
2024-05-09T15:50:41.318Z,2.40
2024-05-09T15:53:12.374Z,2.40
2024-05-09T15:55:42.299Z,2.20
2024-05-09T15:58:10.442Z,2.50
2024-05-09T16:00:42.018Z,2.10
2024-05-09T16:03:13.632Z,1.90
2024-05-09T16:05:44.598Z,2.40
2024-05-09T16:08:13.525Z,2.00
2024-05-09T16:10:45.897Z,1.80
2024-05-09T16:13:15.398Z,1.80
2024-05-09T16:15:43.934Z,2.00
2024-05-09T16:18:12.237Z,1.90
2024-05-09T16:20:42.313Z,1.90
2024-05-09T16:23:12.486Z,2.20
2024-05-09T16:25:45.071Z,2.00
2024-05-09T16:28:13.217Z,2.20
2024-05-09T16:30:41.567Z,2.10
2024-05-09T16:33:11.711Z,1.90
2024-05-09T16:35:40.571Z,2.30
2024-05-09T16:38:08.492Z,2.10
2024-05-09T16:40:39.963Z,1.70
2024-05-09T16:43:10.542Z,2.10
2024-05-09T16:45:46.093Z,2.20
2024-05-09T16:48:14.692Z,1.80
2024-05-09T16:50:42.833Z,2.40
2024-05-09T16:53:10.510Z,2.30
2024-05-09T16:55:38.481Z,2.00
2024-05-09T16:58:08.332Z,2.10
2024-05-09T17:00:41.572Z,2.10
2024-05-09T17:03:14.909Z,1.80
2024-05-09T17:05:46.744Z,2.10
2024-05-09T17:08:17.899Z,2.00
2024-05-09T17:10:48.518Z,2.20
2024-05-09T17:13:17.294Z,2.00
2024-05-09T17:15:45.515Z,1.90
2024-05-09T17:18:13.641Z,2.10
2024-05-09T17:20:41.481Z,2.00
2024-05-09T17:23:13.128Z,2.30
2024-05-09T17:25:41.952Z,2.50
2024-05-09T17:28:10.699Z,2.50
2024-05-09T17:30:40.618Z,2.80
2024-05-09T17:33:10.958Z,2.00
2024-05-09T17:35:40.066Z,2.30
2024-05-09T17:38:07.937Z,2.00
2024-05-09T17:40:37.619Z,1.80
2024-05-09T17:43:09.083Z,1.90
2024-05-09T17:45:41.735Z,2.30
2024-05-09T17:48:11.410Z,1.60
2024-05-09T17:50:41.480Z,2.00
2024-05-09T17:53:10.136Z,1.90
2024-05-09T17:55:37.934Z,2.30
2024-05-09T17:58:06.077Z,2.30
2024-05-09T18:00:39.028Z,2.10
2024-05-09T18:03:11.811Z,2.00
2024-05-09T18:05:41.535Z,2.10
2024-05-09T18:08:09.664Z,2.40
2024-05-09T18:10:40.404Z,2.30
2024-05-09T18:13:09.301Z,2.40
2024-05-09T18:15:38.053Z,2.00
2024-05-09T18:18:06.942Z,2.20
2024-05-09T18:20:42.449Z,2.80
2024-05-09T18:23:16.102Z,2.20
2024-05-09T18:25:46.098Z,2.00
2024-05-09T18:28:14.525Z,2.10
2024-05-09T18:30:42.932Z,2.10
2024-05-09T18:33:11.671Z,2.50
2024-05-09T18:35:44.048Z,2.60
2024-05-09T18:38:11.847Z,2.40
2024-05-09T18:40:41.169Z,2.90
2024-05-09T18:43:11.722Z,2.20
2024-05-09T18:45:39.967Z,2.00
2024-05-09T18:48:09.665Z,2.30
2024-05-09T18:50:40.477Z,2.10
2024-05-09T18:53:11.819Z,2.30
2024-05-09T18:55:43.599Z,2.10
2024-05-09T18:58:11.593Z,2.20
2024-05-09T19:00:41.781Z,2.30
2024-05-09T19:03:13.842Z,2.70
2024-05-09T19:05:44.208Z,2.20
2024-05-09T19:08:14.513Z,2.60
2024-05-09T19:10:42.409Z,2.30
2024-05-09T19:13:12.780Z,3.00
2024-05-09T19:15:42.901Z,2.70
2024-05-09T19:18:13.246Z,2.40
2024-05-09T19:20:42.120Z,2.50
2024-05-09T19:23:11.284Z,2.30
2024-05-09T19:25:39.155Z,2.10
2024-05-09T19:28:06.878Z,2.30
2024-05-09T19:30:40.079Z,2.90
2024-05-09T19:33:13.030Z,2.50
2024-05-09T19:35:42.796Z,2.30
2024-05-09T19:38:11.700Z,2.20
2024-05-09T19:40:39.755Z,2.50
2024-05-09T19:43:07.784Z,2.60
2024-05-09T19:45:36.491Z,1.90
2024-05-09T19:48:06.085Z,2.90
2024-05-09T19:50:41.424Z,2.90
2024-05-09T19:53:13.759Z,2.60
2024-05-09T19:55:42.538Z,2.50
2024-05-09T19:58:11.545Z,4.10
2024-05-09T20:00:42.618Z,2.50
2024-05-09T20:03:14.110Z,3.10
2024-05-09T20:05:45.004Z,3.10
2024-05-09T20:08:12.960Z,3.10
2024-05-09T20:10:40.848Z,2.90
2024-05-09T20:13:09.023Z,2.70
2024-05-09T20:15:37.660Z,5.10
2024-05-09T20:18:06.563Z,2.80
2024-05-09T20:20:39.574Z,2.90
2024-05-09T20:23:11.393Z,3.30
2024-05-09T20:25:40.218Z,3.50
2024-05-09T20:28:08.106Z,3.20
2024-05-09T20:30:36.571Z,2.90
2024-05-09T20:33:09.100Z,2.90
2024-05-09T20:35:37.919Z,3.20
2024-05-09T20:38:05.913Z,3.30
2024-05-09T20:40:37.522Z,3.00
2024-05-09T20:43:08.981Z,3.20
2024-05-09T20:45:37.348Z,3.20
2024-05-09T20:48:06.275Z,3.30
2024-05-09T20:50:39.305Z,3.60
2024-05-09T20:53:11.565Z,4.20
2024-05-09T20:55:40.548Z,3.30
2024-05-09T20:58:09.622Z,3.50
2024-05-09T21:00:41.452Z,3.40
2024-05-09T21:03:13.844Z,2.90
2024-05-09T21:05:42.813Z,4.00
2024-05-09T21:08:10.687Z,3.70
2024-05-09T21:10:38.797Z,3.70
2024-05-09T21:13:07.415Z,4.20
2024-05-09T21:15:36.126Z,3.60
2024-05-09T21:18:04.679Z,4.40
2024-05-09T21:20:34.423Z,3.70
2024-05-09T21:23:03.148Z,3.70
2024-05-09T21:25:31.717Z,4.20
2024-05-09T21:28:00.467Z,4.40
2024-05-09T21:30:38.359Z,4.20
2024-05-09T21:33:12.692Z,4.30
2024-05-09T21:35:43.015Z,3.70
2024-05-09T21:38:10.992Z,3.70
2024-05-09T21:40:39.119Z,3.70
2024-05-09T21:43:07.744Z,3.70
2024-05-09T21:45:35.992Z,3.80
2024-05-09T21:48:05.269Z,3.80
2024-05-09T21:50:39.655Z,3.40
2024-05-09T21:53:13.799Z,3.70
2024-05-09T21:55:42.470Z,3.90
2024-05-09T21:58:12.206Z,4.70
2024-05-09T22:00:42.608Z,4.20
2024-05-09T22:03:28.415Z,4.10
2024-05-09T22:05:56.423Z,3.90
2024-05-09T22:08:24.082Z,3.70
2024-05-09T22:10:51.761Z,3.60
2024-05-09T22:13:20.394Z,4.00
2024-05-09T22:15:48.206Z,4.20
2024-05-09T22:18:15.883Z,4.20
2024-05-09T22:20:45.197Z,4.40
2024-05-09T22:23:14.891Z,4.00
2024-05-09T22:25:42.936Z,3.80
2024-05-09T22:28:13.269Z,4.10
2024-05-09T22:30:41.093Z,4.00
2024-05-09T22:33:11.324Z,3.30
2024-05-09T22:35:40.409Z,4.00
2024-05-09T22:38:08.579Z,3.60
2024-05-09T22:40:46.248Z,3.70
2024-05-09T22:43:19.974Z,3.60
2024-05-09T22:45:48.496Z,3.90
2024-05-09T22:48:16.397Z,4.10
2024-05-09T22:50:44.696Z,4.00
2024-05-09T22:53:12.315Z,3.70
2024-05-09T22:55:39.934Z,4.10
2024-05-09T22:58:10.845Z,4.40
2024-05-09T23:00:39.090Z,5.00
2024-05-09T23:03:09.713Z,4.00
2024-05-09T23:05:37.642Z,3.80
2024-05-09T23:08:05.699Z,4.70
2024-05-09T23:10:36.755Z,4.30
2024-05-09T23:13:07.788Z,4.30
2024-05-09T23:15:37.824Z,4.30
2024-05-09T23:18:06.161Z,4.30
2024-05-09T23:20:38.301Z,4.60
2024-05-09T23:23:09.209Z,4.10
2024-05-09T23:25:38.049Z,4.50
2024-05-09T23:28:06.430Z,4.90
2024-05-09T23:30:38.570Z,4.30
2024-05-09T23:33:12.960Z,4.60
2024-05-09T23:35:43.692Z,4.70
2024-05-09T23:38:12.651Z,4.90
2024-05-09T23:40:42.848Z,5.40
2024-05-09T23:43:12.382Z,4.50
2024-05-09T23:45:41.814Z,4.80
2024-05-09T23:48:10.720Z,5.00
2024-05-09T23:50:40.221Z,4.80
2024-05-09T23:53:09.838Z,4.80
2024-05-09T23:55:39.071Z,5.10
2024-05-09T23:58:08.289Z,5.90
